Terminal Aerodrome Forecast
Issued by NWS Charleston, WV

Current Version | Previous Version | Text Only | Print | Product List | Glossary Off
Versions: 1 2 3 4 5 6 7 8 9 10 11 12 13 14 15 16 17 18 19 20 21 22 23 24 25

752
FTUS41 KRLX 120300 AAA
TAFEKN
TAF AMD
KEKN 120300Z 1203/1224 28004KT P6SM BKN040
     FM120600 VRB03KT P6SM SCT250
     FM121200 00000KT P6SM BKN050
     FM121800 25006KT 3SM -SN OVC035
     FM122100 27008KT 2SM -SN OVC015=

USA.gov is the U.S. government's official web portal to all federal, state and local government web resources and services.